Alsey, Illinois
Current Conditions -  °F | °C
As of 8:15 AM on Saturday 22 Nov 2014 (Local Time) from KIJX Reporting Station
Overcast Overcast  
Wind Chill: 41°   Ceiling: 8500
Heat Index: 46°   Visibility: 10mi
Dew Point: 40°   Wind: 10mph
Humidity: 81%   Direction: 170°S
Pressure: 30.04"   Gusts: NA
Location:  39.56°N, 90.43°W
Report Text: KIJX 221415Z AUTO 17009KT 10SM OVC085 08/05 A3004 RMK AO2 T00760045
Loading
Personal Weather Stations






























Interactive Weather Map New forecast layout! Learn more

10-Day Weather Forecast

Advertisements
Track Severe Weather on mobile